Disclaimer

Please do not use the information listed here in-flight or in-navigation, as they are not provided to us by the airports but are provided by volunteers, so they might be outdated.

Search


Regions


Airport information page

Radio informations:
RECIFE TWR - 122.8 MHz
RECIFE OPS - 122.5 MHz
Ground (GND) - 121.85 MHz
Automatic Terminal Information Service (ATIS) - 127.65 MHz
RECIFE APP - 119.1 MHz

Airport informations:
Latitude: 08° 07' 36.46" S
Longitude: 034° 55' 22.94" W
Elevation: 33 feet - 10 meters
Operating hours: 24 hour operations
Operating agency: Military-civil joint use airport
Timezone: UTC-3(-2DT)
Fuel: Jet A1, without icing nhibitor.

100/130 octane gasoline, leaded, MIL-L-5572F (GREEN)

Runway information:
18/36 - 9865 x 148 feet< - >3007 x 45 meters

Recent METARs:
SBRF 190100Z 15011KT CAVOK 26/21 Q1014
SBRF 190200Z 14010KT 9999 SCT020 SCT050 27/22 Q1014
SBRF 190200Z 14010KT 9999 SCT020 SCT050 27/22 Q1014

Airport on the map: